There is a communication problem. Go directly to the Meteoalarm site : www.meteoalarm.eu and check the Weather-warnings there .

Nearby METAR Reports

 

EGTC - Cranfield, United Kingdom
Distance from station: W 14mi, 22km
Updated: 15/08/2022 17:20
Clear
Clear
 Wind from NNW
Wind: NNW 8 mph , 13 km/h
Temperature: 25°C
Dew Point: 13°C
Humidity: 47%
Barometer: 1003 hPa
Summary: Clear
Visibility: greater than 7 miles , 10 km
2022/08/15 16:20 EGTC 151620Z 34007KT 310V020 CAVOK 25/13 Q1003
EGGW - Luton Airport, United Kingdom
Distance from station: S 16mi, 26km
Updated: 15/08/2022 17:20
Clear
Clear
 Wind from N
Wind: N 10 mph , 17 km/h
Temperature: 26°C
Dew Point: 8°C
Humidity: 32%
Barometer: 1003 hPa
Clouds: Clear
Visibility: 6 miles , 10 km
2022/08/15 16:20 EGGW 151620Z AUTO 36009KT 320V040 9999 NCD 26/08 Q1003
 
EGUY - Wyton Raf, United Kingdom
Distance from station: NNE 19mi, 31km
Updated: 04/10/2015 09:50
NOT Current
Haze, Clear
Haze, Clear
 Wind from SSE
Wind: SSE 2 mph , 4 km/h
Temperature: 11°C
Dew Point: 7°C
Humidity: 77%
Barometer: 1014 hPa
Summary: Haze
Clouds: Clear
Visibility: 4 miles , 6 km
2015/10/04 08:50 EGUY 040850Z 15002KT 6000 HZ SKC 11/07 Q1014 WHT
EGSC - Cambridge, United Kingdom
Distance from station: ENE 21mi, 33km
Updated: 15/08/2022 17:20
Clear
Clear
 Wind from NNW
Wind: NNW 6 mph , 9 km/h
Temperature: 28°C
Dew Point: 12°C
Humidity: 37%
Barometer: 1002 hPa
Summary: Clear
Visibility: greater than 7 miles , 10 km
2022/08/15 16:20 EGSC 151620Z 34005KT 270V060 CAVOK 28/12 Q1002
 
EGSS - Stansted Airport, United Kingdom
Distance from station: SE 26mi, 42km
Updated: 15/08/2022 17:20
Clear
Clear
 Wind from NE
Wind: NE 8 mph , 13 km/h
Temperature: 26°C
Dew Point: 12°C
Humidity: 42%
Barometer: 1003 hPa
Clouds: Clear
Visibility: 6 miles , 10 km
2022/08/15 16:20 EGSS 151620Z AUTO 05007KT 9999 NCD 26/12 Q1003
EGXT - Wittering Raf, United Kingdom
Distance from station: NNW 37mi, 59km
Updated: 15/08/2022 16:50
Few Clouds
Few Clouds
 Wind from WNW
Wind: WNW 14 mph , 22 km/h
Temperature: 26°C
Dew Point: 12°C
Humidity: 42%
Barometer: 1002 hPa
Clouds: Few Clouds
Visibility: 6 miles , 10 km
Cloud details: Few Clouds 5486 m
2022/08/15 15:50 EGXT 151550Z AUTO 30012KT 9999 FEW180/// 26/12 Q1002
 
EGUN - Mildenhall Raf, United Kingdom
Distance from station: ENE 37mi, 60km
Updated: 15/08/2022 16:56
Mostly cloudy
Mostly cloudy
 Wind from SSW
Wind: SSW 7 mph , 11 km/h
Temperature: 23°C
Dew Point: 15°C
Humidity: 61%
Barometer: 1001.7 hPa
Clouds: Mostly cloudy
Visibility: 6 miles , 10 km
Cloud details: Partly cloudy 2286 m
Mostly cloudy 3048 m
2022/08/15 15:56 EGUN 151556Z 20006KT 9999 SCT075 BKN100 23/15 A2958 RMK AO2A RAB50E49 SLP020 P0000 T02310146 $
EGWU - Northolt Raf, United Kingdom
Distance from station: S 38mi, 62km
Updated: 15/08/2022 17:20
Clear
Clear
 Wind from WNW
Wind: WNW 8 mph , 13 km/h
Temperature: 27°C
Dew Point: 11°C
Humidity: 37%
Barometer: 1002 hPa
Summary: Clear
Visibility: greater than 7 miles , 10 km
2022/08/15 16:20 EGWU 151620Z 30007KT CAVOK 27/11 Q1002 NOSIG
 
EGLL - London/Heathrow, United Kingdom
Distance from station: S 43mi, 69km
Updated: 15/08/2022 17:20
Clear
Clear
 Wind from NW
Wind: NW 7 mph , 11 km/h
Temperature: 28°C
Dew Point: 11°C
Humidity: 35%
Barometer: 1003 hPa
Clouds: Clear
Visibility: 6 miles , 10 km
2022/08/15 16:20 EGLL 151620Z AUTO 32006KT 290V350 9999 NCD 28/11 Q1003
EGUL - Lakenheath Raf, United Kingdom
Distance from station: ENE 43mi, 69km
Updated: 15/08/2022 16:56
Overcast
Overcast
 Wind from SW
Wind: SW 10 mph , 17 km/h
Temperature: 25°C
Dew Point: 12°C
Humidity: 44%
Barometer: 1001.4 hPa
Clouds: Overcast
Visibility: 6 miles , 10 km
Cloud details: Mostly cloudy 2438 m
Overcast 4877 m
2022/08/15 15:56 EGUL 151556Z 22009KT 9999 BKN080 OVC160 25/12 A2957 RMK AO2A SLP016 T02520117 $
 
EGLC - London City Airp, United Kingdom
Distance from station: SSE 44mi, 71km
Updated: 15/08/2022 17:20
Clear
Clear
 Wind from SSW
Wind: SSW 5 mph , 7 km/h
Temperature: 28°C
Dew Point: 11°C
Humidity: 35%
Barometer: 1002 hPa
Clouds: Clear
Visibility: 6 miles , 10 km
2022/08/15 16:20 EGLC 151620Z AUTO 21004KT 130V290 9999 NCD 28/11 Q1002
EGUB - Benson Raf, United Kingdom
Distance from station: SW 47mi, 75km
Updated: 15/08/2022 17:20
Clear
Clear
 Wind from W
Wind: W 5 mph , 7 km/h
Temperature: 26°C
Dew Point: 10°C
Humidity: 37%
Barometer: 1003 hPa
Summary: Clear
Visibility: greater than 7 miles , 10 km
2022/08/15 16:20 EGUB 151620Z 28004KT CAVOK 26/10 Q1003 NOSIG RMK BLU BLU